createdAt,value
2022-10-18T00:00:57.527Z,4.05
2022-10-18T00:04:14.640Z,3.80
2022-10-18T00:07:18.255Z,3.47
2022-10-18T00:10:21.364Z,3.55
2022-10-18T00:13:25.774Z,3.22
2022-10-18T00:16:28.837Z,3.50
2022-10-18T00:19:36.383Z,3.75
2022-10-18T00:22:41.845Z,3.60
2022-10-18T00:25:45.191Z,3.55
2022-10-18T00:28:53.254Z,3.88
2022-10-18T00:31:56.816Z,3.30
2022-10-18T00:35:01.161Z,3.35
2022-10-18T00:38:04.499Z,3.27
2022-10-18T00:41:11.204Z,3.22
2022-10-18T00:45:04.065Z,3.53
2022-10-18T00:48:07.216Z,3.33
2022-10-18T00:51:13.218Z,3.40
2022-10-18T00:54:20.263Z,3.00
2022-10-18T00:57:25.157Z,3.05
2022-10-18T01:00:28.456Z,3.10
2022-10-18T01:03:32.848Z,2.85
2022-10-18T01:06:51.631Z,3.42
2022-10-18T01:10:09.204Z,3.07
2022-10-18T01:13:36.718Z,2.90
2022-10-18T01:16:50.443Z,3.15
2022-10-18T01:20:45.003Z,3.70
2022-10-18T01:24:27.787Z,3.33
2022-10-18T01:27:45.505Z,3.00
2022-10-18T01:30:59.841Z,3.20
2022-10-18T01:34:08.180Z,2.83
2022-10-18T01:37:19.403Z,3.00
2022-10-18T01:40:25.907Z,3.25
2022-10-18T01:43:33.941Z,2.90
2022-10-18T01:46:42.322Z,3.05
2022-10-18T01:49:45.700Z,2.85
2022-10-18T01:52:50.582Z,2.75
2022-10-18T01:56:11.641Z,2.80
2022-10-18T01:59:38.982Z,2.73
2022-10-18T02:02:55.437Z,2.60
2022-10-18T02:06:06.921Z,2.80
2022-10-18T02:09:19.016Z,2.28
2022-10-18T02:12:24.336Z,2.67
2022-10-18T02:15:36.243Z,2.50
2022-10-18T02:18:46.286Z,2.85
2022-10-18T02:21:54.783Z,2.50
2022-10-18T02:25:03.350Z,2.80
2022-10-18T02:28:07.679Z,2.58
2022-10-18T02:31:22.106Z,3.00
2022-10-18T02:34:35.364Z,2.60
2022-10-18T02:37:41.065Z,2.55
2022-10-18T02:40:44.716Z,2.40
2022-10-18T02:43:47.804Z,2.58
2022-10-18T02:46:51.517Z,2.73
2022-10-18T02:49:55.919Z,2.38
2022-10-18T02:52:59.416Z,2.47
2022-10-18T02:56:03.264Z,2.70
2022-10-18T02:59:07.484Z,2.70
2022-10-18T03:02:10.600Z,2.20
2022-10-18T03:05:15.944Z,2.28
2022-10-18T03:08:20.024Z,2.60
2022-10-18T03:11:24.079Z,2.33
2022-10-18T03:14:27.135Z,2.22
2022-10-18T03:17:30.971Z,2.30
2022-10-18T03:20:36.301Z,2.60
2022-10-18T03:23:41.867Z,2.10
2022-10-18T03:26:44.873Z,2.30
2022-10-18T03:29:48.298Z,2.33
2022-10-18T03:32:51.700Z,2.37
2022-10-18T03:35:56.747Z,2.17
2022-10-18T03:38:59.956Z,2.00
2022-10-18T03:42:03.338Z,2.07
2022-10-18T03:45:08.264Z,2.00
2022-10-18T03:48:11.797Z,2.30
2022-10-18T03:51:16.380Z,2.03
2022-10-18T03:54:19.827Z,2.20
2022-10-18T03:57:22.839Z,2.13
2022-10-18T04:00:26.827Z,2.30
2022-10-18T04:03:29.939Z,1.87
2022-10-18T04:06:34.759Z,2.28
2022-10-18T04:09:37.897Z,2.22
2022-10-18T04:12:41.585Z,2.20
2022-10-18T04:15:44.689Z,2.30
2022-10-18T04:18:48.207Z,2.47
2022-10-18T04:21:52.662Z,2.28
2022-10-18T04:24:56.848Z,2.20
2022-10-18T04:27:59.856Z,2.35
2022-10-18T04:31:03.366Z,2.40
2022-10-18T04:34:06.313Z,2.20
2022-10-18T04:37:11.219Z,2.22
2022-10-18T04:40:14.334Z,2.22
2022-10-18T04:43:17.736Z,2.30
2022-10-18T04:46:20.806Z,2.10
2022-10-18T04:49:24.196Z,2.30
2022-10-18T04:52:28.601Z,2.30
2022-10-18T04:55:32.031Z,1.90
2022-10-18T04:58:35.255Z,2.33
2022-10-18T05:01:38.505Z,1.83
2022-10-18T05:04:41.689Z,1.90
2022-10-18T05:07:46.307Z,1.98
2022-10-18T05:10:49.351Z,2.03
2022-10-18T05:13:53.964Z,1.80
2022-10-18T05:16:56.990Z,1.65
2022-10-18T05:20:00.392Z,2.10
2022-10-18T05:23:05.137Z,2.28
2022-10-18T05:26:10.447Z,2.20
2022-10-18T05:29:13.648Z,2.10
2022-10-18T05:32:17.280Z,2.22
2022-10-18T05:35:20.405Z,2.03
2022-10-18T05:38:25.915Z,2.22
2022-10-18T05:41:29.507Z,2.08
2022-10-18T05:44:32.954Z,2.10
2022-10-18T05:50:44.893Z,1.90
2022-10-18T05:53:49.294Z,2.22
2022-10-18T05:56:53.612Z,1.85
2022-10-18T05:59:56.558Z,2.30
2022-10-18T06:03:00.543Z,2.10
2022-10-18T06:06:06.511Z,2.30
2022-10-18T06:09:11.497Z,2.28
2022-10-18T06:12:14.575Z,2.40
2022-10-18T06:15:18.436Z,2.40
2022-10-18T06:18:21.401Z,2.13
2022-10-18T06:21:25.912Z,2.20
2022-10-18T06:24:30.276Z,2.08
2022-10-18T06:27:35.128Z,3.10
2022-10-18T06:30:38.378Z,2.88
2022-10-18T06:33:43.125Z,2.65
2022-10-18T06:36:46.246Z,2.97
2022-10-18T06:39:50.981Z,3.03
2022-10-18T06:43:00.282Z,2.25
2022-10-18T06:46:08.089Z,2.80
2022-10-18T06:49:14.101Z,2.70
2022-10-18T06:52:25.919Z,2.53
2022-10-18T06:55:39.413Z,2.58
2022-10-18T06:58:42.706Z,2.70
2022-10-18T07:01:45.665Z,2.30
2022-10-18T07:04:49.057Z,2.45
2022-10-18T07:07:54.339Z,2.47
2022-10-18T07:11:01.125Z,2.40
2022-10-18T07:14:05.487Z,3.05
2022-10-18T07:17:09.082Z,2.50
2022-10-18T07:20:12.559Z,3.20
2022-10-18T07:23:15.967Z,2.60
2022-10-18T07:26:23.850Z,2.40
2022-10-18T07:29:27.174Z,2.40
2022-10-18T07:32:30.195Z,2.55
2022-10-18T07:35:33.578Z,2.17
2022-10-18T07:38:37.050Z,2.43
2022-10-18T07:41:41.771Z,2.28
2022-10-18T07:44:44.680Z,2.30
2022-10-18T07:47:48.073Z,2.60
2022-10-18T07:50:51.164Z,2.33
2022-10-18T07:53:55.144Z,2.43
2022-10-18T07:56:59.551Z,2.13
2022-10-18T08:00:03.624Z,2.42
2022-10-18T08:03:14.574Z,1.95
2022-10-18T08:06:21.118Z,2.40
2022-10-18T08:09:24.240Z,2.20
2022-10-18T08:12:28.832Z,2.28
2022-10-18T08:15:31.812Z,2.22
2022-10-18T08:18:36.694Z,2.30
2022-10-18T08:21:39.696Z,2.15
2022-10-18T08:24:43.258Z,2.70
2022-10-18T08:27:47.794Z,1.98
2022-10-18T08:30:51.221Z,2.45
2022-10-18T08:33:57.098Z,2.45
2022-10-18T08:37:00.779Z,2.53
2022-10-18T08:40:03.861Z,2.53
2022-10-18T08:43:21.595Z,2.80
2022-10-18T08:46:26.134Z,2.83
2022-10-18T08:49:46.302Z,3.03
2022-10-18T08:52:58.438Z,2.90
2022-10-18T08:56:11.136Z,2.87
2022-10-18T08:59:15.697Z,2.83
2022-10-18T09:02:39.813Z,2.40
2022-10-18T09:05:52.993Z,2.13
2022-10-18T09:09:32.533Z,2.33
2022-10-18T09:13:08.534Z,2.10
2022-10-18T09:16:21.694Z,3.03
2022-10-18T09:19:47.035Z,3.10
2022-10-18T09:22:56.975Z,3.15
2022-10-18T09:26:11.210Z,3.08
2022-10-18T09:29:41.820Z,3.40
2022-10-18T09:32:55.776Z,3.80
2022-10-18T09:36:03.358Z,5.03
2022-10-18T09:39:39.519Z,4.53
2022-10-18T09:42:56.271Z,4.30
2022-10-18T09:46:00.001Z,4.53
2022-10-18T09:49:16.391Z,4.57
2022-10-18T09:52:27.617Z,3.75
2022-10-18T09:55:39.577Z,3.80
2022-10-18T09:58:46.399Z,3.17
2022-10-18T10:01:49.893Z,3.13
2022-10-18T10:04:55.704Z,3.40
2022-10-18T10:08:02.359Z,3.33
2022-10-18T10:11:05.795Z,3.20
2022-10-18T10:17:27.451Z,3.60
2022-10-18T10:20:42.777Z,3.90
2022-10-18T10:23:53.880Z,3.92
2022-10-18T10:27:04.334Z,3.42
2022-10-18T10:30:25.502Z,3.58
2022-10-18T10:33:36.357Z,3.43
2022-10-18T10:36:50.145Z,3.78
2022-10-18T10:40:19.880Z,3.47
2022-10-18T10:43:44.044Z,3.38
2022-10-18T10:46:50.376Z,3.40
2022-10-18T10:49:57.341Z,3.43
2022-10-18T10:53:02.507Z,3.38
2022-10-18T10:56:18.754Z,3.40
2022-10-18T10:59:26.383Z,3.40
2022-10-18T11:02:33.876Z,3.17
2022-10-18T11:05:46.822Z,3.43
2022-10-18T11:08:53.505Z,3.17
2022-10-18T11:12:10.129Z,3.40
2022-10-18T11:15:24.605Z,3.10
2022-10-18T11:18:34.532Z,3.15
2022-10-18T11:21:39.229Z,3.47
2022-10-18T11:24:45.058Z,3.50
2022-10-18T11:28:00.375Z,3.42
2022-10-18T11:31:19.135Z,2.97
2022-10-18T11:34:55.056Z,3.42
2022-10-18T11:38:20.219Z,3.10
2022-10-18T11:41:35.452Z,3.03
2022-10-18T11:44:51.195Z,3.53
2022-10-18T11:48:06.451Z,3.40
2022-10-18T11:51:29.646Z,3.28
2022-10-18T11:55:12.562Z,3.23
2022-10-18T11:58:43.564Z,3.25
2022-10-18T12:02:29.564Z,3.40
2022-10-18T12:05:51.215Z,3.33
2022-10-18T12:09:00.827Z,3.08
2022-10-18T12:12:17.531Z,2.73
2022-10-18T12:15:37.182Z,3.40
2022-10-18T12:18:56.405Z,3.55
2022-10-18T12:22:15.412Z,2.90
2022-10-18T12:25:20.125Z,3.00
2022-10-18T12:28:44.106Z,3.10
2022-10-18T12:31:54.243Z,3.40
2022-10-18T12:35:04.439Z,3.35
2022-10-18T12:38:22.208Z,3.25
2022-10-18T12:41:31.185Z,3.08
2022-10-18T12:44:36.929Z,3.00
2022-10-18T12:47:41.813Z,3.00
2022-10-18T12:50:45.529Z,3.05
2022-10-18T12:53:57.948Z,2.90
2022-10-18T12:57:03.588Z,3.05
2022-10-18T13:00:28.377Z,2.90
2022-10-18T13:03:55.101Z,3.00
2022-10-18T13:07:34.549Z,3.20
2022-10-18T13:10:38.534Z,3.22
2022-10-18T13:14:12.106Z,3.00
2022-10-18T13:17:31.018Z,2.80
2022-10-18T13:20:45.316Z,3.00
2022-10-18T13:24:11.029Z,2.88
2022-10-18T13:27:37.200Z,2.92
2022-10-18T13:30:52.132Z,3.05
2022-10-18T13:33:55.310Z,2.80
2022-10-18T13:37:03.667Z,3.08
2022-10-18T13:40:24.985Z,2.92
2022-10-18T13:44:11.684Z,2.92
2022-10-18T13:47:32.729Z,3.05
2022-10-18T13:50:43.329Z,3.23
2022-10-18T13:54:01.018Z,3.20
2022-10-18T13:57:25.991Z,3.20
2022-10-18T14:01:03.204Z,3.33
2022-10-18T14:05:10.550Z,3.10
2022-10-18T14:08:26.182Z,3.33
2022-10-18T14:11:37.435Z,3.40
2022-10-18T14:14:47.020Z,3.28
2022-10-18T14:17:55.237Z,3.60
2022-10-18T14:21:13.744Z,3.63
2022-10-18T14:24:27.553Z,3.67
2022-10-18T14:27:33.606Z,3.30
2022-10-18T14:30:38.517Z,3.53
2022-10-18T14:33:45.909Z,3.63
2022-10-18T14:36:51.448Z,3.70
2022-10-18T14:39:54.576Z,3.40
2022-10-18T14:43:04.245Z,3.30
2022-10-18T14:46:22.042Z,3.15
2022-10-18T14:49:25.550Z,3.63
2022-10-18T14:52:35.604Z,3.40
2022-10-18T14:55:43.027Z,3.40
2022-10-18T14:58:47.680Z,3.25
2022-10-18T15:01:58.118Z,3.05
2022-10-18T15:05:09.901Z,3.28
2022-10-18T15:08:13.918Z,3.20
2022-10-18T15:11:18.143Z,3.10
2022-10-18T15:14:23.766Z,3.28
2022-10-18T15:17:31.509Z,3.20
2022-10-18T15:20:42.317Z,3.60
2022-10-18T15:23:45.419Z,3.35
2022-10-18T15:26:51.157Z,3.07
2022-10-18T15:29:56.424Z,4.05
2022-10-18T15:33:02.620Z,3.60
2022-10-18T15:36:11.573Z,4.28
2022-10-18T15:39:19.367Z,4.00
2022-10-18T15:42:39.212Z,4.60
2022-10-18T15:49:38.922Z,3.90
2022-10-18T15:52:43.341Z,3.15
2022-10-18T15:55:52.252Z,3.40
2022-10-18T15:58:57.941Z,3.43
2022-10-18T16:02:02.532Z,3.90
2022-10-18T16:05:06.694Z,3.80
2022-10-18T16:08:21.468Z,3.83
2022-10-18T16:11:27.187Z,3.30
2022-10-18T16:14:30.841Z,3.30
2022-10-18T16:17:36.014Z,3.33
2022-10-18T16:20:39.134Z,3.92
2022-10-18T16:23:42.567Z,3.67
2022-10-18T16:26:45.803Z,3.95
2022-10-18T16:29:49.154Z,3.27
2022-10-18T16:32:53.482Z,3.60
2022-10-18T16:35:57.009Z,3.80
2022-10-18T16:39:07.539Z,3.85
2022-10-18T16:42:10.717Z,3.80
2022-10-18T16:45:13.746Z,3.80
2022-10-18T16:48:21.720Z,3.33
2022-10-18T16:51:25.540Z,3.97
2022-10-18T16:54:29.378Z,3.72
2022-10-18T16:57:32.442Z,3.70
2022-10-18T17:00:35.840Z,3.20
2022-10-18T17:03:40.826Z,3.53
2022-10-18T17:06:47.398Z,3.80
2022-10-18T17:09:50.480Z,3.80
2022-10-18T17:12:54.945Z,3.80
2022-10-18T17:15:59.320Z,3.57
2022-10-18T17:19:11.759Z,3.78
2022-10-18T17:22:14.802Z,3.53
2022-10-18T17:25:20.505Z,3.50
2022-10-18T17:28:23.537Z,3.97
2022-10-18T17:31:27.737Z,4.37
2022-10-18T17:34:32.185Z,4.10
2022-10-18T17:37:35.928Z,4.18
2022-10-18T17:40:42.013Z,4.13
2022-10-18T17:43:45.452Z,3.80
2022-10-18T17:46:49.091Z,3.77
2022-10-18T17:49:54.806Z,3.45
2022-10-18T17:52:57.970Z,3.90
2022-10-18T17:56:03.683Z,4.22
2022-10-18T17:59:07.168Z,3.95
2022-10-18T18:02:11.321Z,4.00
2022-10-18T18:05:15.786Z,3.72
2022-10-18T18:08:19.186Z,4.75
2022-10-18T18:11:22.165Z,3.60
2022-10-18T18:14:25.808Z,4.18
2022-10-18T18:17:34.481Z,4.27
2022-10-18T18:20:55.033Z,3.72
2022-10-18T18:23:58.576Z,4.00
2022-10-18T18:27:02.254Z,3.35
2022-10-18T18:30:07.193Z,3.22
2022-10-18T18:33:13.503Z,3.73
2022-10-18T18:36:18.855Z,3.72
2022-10-18T18:39:27.763Z,3.90
2022-10-18T18:42:31.199Z,3.80
2022-10-18T18:45:34.735Z,3.72
2022-10-18T18:48:38.794Z,3.70
2022-10-18T18:51:43.807Z,4.38
2022-10-18T18:54:46.786Z,3.35
2022-10-18T18:57:50.361Z,3.38
2022-10-18T19:00:53.402Z,3.70
2022-10-18T19:04:00.077Z,3.50
2022-10-18T19:07:04.611Z,3.50
2022-10-18T19:10:08.976Z,4.00
2022-10-18T19:13:12.008Z,3.22
2022-10-18T19:16:23.220Z,3.35
2022-10-18T19:19:28.411Z,3.87
2022-10-18T19:22:33.822Z,3.83
2022-10-18T19:25:37.058Z,3.33
2022-10-18T19:28:41.110Z,3.15
2022-10-18T19:31:45.787Z,3.47
2022-10-18T19:34:49.597Z,3.20
2022-10-18T19:37:53.947Z,3.45
2022-10-18T19:40:57.204Z,3.03
2022-10-18T19:44:00.537Z,2.90
2022-10-18T19:47:05.116Z,2.80
2022-10-18T19:50:09.252Z,3.00
2022-10-18T19:53:14.456Z,2.97
2022-10-18T19:56:21.422Z,2.95
2022-10-18T19:59:24.983Z,2.97
2022-10-18T20:02:27.940Z,2.63
2022-10-18T20:05:31.559Z,3.03
2022-10-18T20:08:37.465Z,3.25
2022-10-18T20:11:42.545Z,3.03
2022-10-18T20:14:45.506Z,3.10
2022-10-18T20:20:57.018Z,2.67
2022-10-18T20:24:01.797Z,2.70
2022-10-18T20:27:21.211Z,2.53
2022-10-18T20:30:40.878Z,2.50
2022-10-18T20:33:47.906Z,2.10
2022-10-18T20:36:51.908Z,2.40
2022-10-18T20:39:56.226Z,2.30
2022-10-18T20:43:03.646Z,2.33
2022-10-18T20:46:09.018Z,2.05
2022-10-18T20:49:18.674Z,1.75
2022-10-18T20:52:28.559Z,2.27
2022-10-18T20:55:38.745Z,2.00
2022-10-18T20:58:44.940Z,2.20
2022-10-18T21:01:48.454Z,2.30
2022-10-18T21:04:51.473Z,1.85
2022-10-18T21:07:54.868Z,2.40
2022-10-18T21:11:02.038Z,1.98
2022-10-18T21:14:07.464Z,3.90
2022-10-18T21:17:10.468Z,2.72
2022-10-18T21:20:13.780Z,2.80
2022-10-18T21:23:16.741Z,2.10
2022-10-18T21:26:25.271Z,2.38
2022-10-18T21:29:30.826Z,1.90
2022-10-18T21:32:34.458Z,2.15
2022-10-18T21:35:38.876Z,2.03
2022-10-18T21:38:46.469Z,2.03
2022-10-18T21:41:51.750Z,2.08
2022-10-18T21:44:55.104Z,1.75
2022-10-18T21:47:58.138Z,1.70
2022-10-18T21:51:04.468Z,2.25
2022-10-18T21:54:12.883Z,1.70
2022-10-18T21:57:17.715Z,1.67
2022-10-18T22:00:21.023Z,1.80
2022-10-18T22:03:24.444Z,1.92
2022-10-18T22:06:32.294Z,1.90
2022-10-18T22:09:35.667Z,1.70
2022-10-18T22:12:39.956Z,1.80
2022-10-18T22:15:43.549Z,1.63
2022-10-18T22:18:48.697Z,1.60
2022-10-18T22:21:52.411Z,2.00
2022-10-18T22:24:55.383Z,1.70
2022-10-18T22:28:00.419Z,1.30
2022-10-18T22:31:03.679Z,1.60
2022-10-18T22:34:11.768Z,1.50
2022-10-18T22:37:14.787Z,1.52
2022-10-18T22:40:18.502Z,1.67
2022-10-18T22:43:22.891Z,1.35
2022-10-18T22:46:26.571Z,1.65
2022-10-18T22:49:29.625Z,1.40
2022-10-18T22:52:33.535Z,1.42
2022-10-18T22:55:36.725Z,1.43
2022-10-18T22:58:41.688Z,1.45
2022-10-18T23:01:44.816Z,1.20
2022-10-18T23:04:49.638Z,1.33
2022-10-18T23:07:52.761Z,1.40
2022-10-18T23:11:00.797Z,1.60
2022-10-18T23:14:07.193Z,1.30
2022-10-18T23:17:10.767Z,1.50
2022-10-18T23:20:13.739Z,1.40
2022-10-18T23:23:17.296Z,1.30
2022-10-18T23:26:23.656Z,1.63
2022-10-18T23:29:28.568Z,1.50
2022-10-18T23:32:31.892Z,1.63
2022-10-18T23:35:35.621Z,1.20
2022-10-18T23:38:40.250Z,1.27
2022-10-18T23:41:43.675Z,1.30
2022-10-18T23:44:48.229Z,1.42
2022-10-18T23:47:51.901Z,1.20
2022-10-18T23:50:55.450Z,1.05
2022-10-18T23:53:58.836Z,1.05
2022-10-18T23:57:02.040Z,1.43
